sensor_id;sensor_type;location;lat;lon;timestamp;pressure;altitude;pressure_sealevel;temperature;humidity
59289;BME280;45056;47.602;9.886;2023-02-03T00:00:09;94180.53;;;4.36;63.51
59289;BME280;45056;47.602;9.886;2023-02-03T00:02:38;94178.22;;;4.34;63.58
59289;BME280;45056;47.602;9.886;2023-02-03T00:05:08;94160.91;;;4.35;63.83
59289;BME280;45056;47.602;9.886;2023-02-03T00:07:38;94152.06;;;4.35;63.78
59289;BME280;45056;47.602;9.886;2023-02-03T00:10:07;94146.66;;;4.35;63.56
59289;BME280;45056;47.602;9.886;2023-02-03T00:12:36;94145.88;;;4.34;63.70
59289;BME280;45056;47.602;9.886;2023-02-03T00:15:05;94137.03;;;4.33;63.79
59289;BME280;45056;47.602;9.886;2023-02-03T00:17:33;94152.41;;;4.33;63.81
59289;BME280;45056;47.602;9.886;2023-02-03T00:20:01;94146.63;;;4.31;63.65
59289;BME280;45056;47.602;9.886;2023-02-03T00:22:31;94148.16;;;4.32;63.62
59289;BME280;45056;47.602;9.886;2023-02-03T00:24:59;94150.09;;;4.31;63.49
59289;BME280;45056;47.602;9.886;2023-02-03T00:27:27;94158.19;;;4.31;63.80
59289;BME280;45056;47.602;9.886;2023-02-03T00:29:55;94158.53;;;4.30;63.64
59289;BME280;45056;47.602;9.886;2023-02-03T00:32:23;94150.47;;;4.30;63.75
59289;BME280;45056;47.602;9.886;2023-02-03T00:34:51;94151.59;;;4.29;63.70
59289;BME280;45056;47.602;9.886;2023-02-03T00:37:19;94146.59;;;4.27;63.74
59289;BME280;45056;47.602;9.886;2023-02-03T00:39:49;94156.59;;;4.27;63.78
59289;BME280;45056;47.602;9.886;2023-02-03T00:42:17;94166.59;;;4.26;63.57
59289;BME280;45056;47.602;9.886;2023-02-03T00:44:45;94167.75;;;4.25;63.61
59289;BME280;45056;47.602;9.886;2023-02-03T00:47:13;94176.59;;;4.26;63.57
59289;BME280;45056;47.602;9.886;2023-02-03T00:49:41;94176.19;;;4.24;63.39
59289;BME280;45056;47.602;9.886;2023-02-03T00:52:09;94173.50;;;4.24;63.43
59289;BME280;45056;47.602;9.886;2023-02-03T00:54:37;94171.59;;;4.24;63.50
59289;BME280;45056;47.602;9.886;2023-02-03T00:57:07;94177.00;;;4.24;63.27
59289;BME280;45056;47.602;9.886;2023-02-03T00:59:35;94174.28;;;4.24;63.37
59289;BME280;45056;47.602;9.886;2023-02-03T01:02:02;94165.41;;;4.24;63.20
59289;BME280;45056;47.602;9.886;2023-02-03T01:04:30;94164.28;;;4.25;63.15
59289;BME280;45056;47.602;9.886;2023-02-03T01:06:58;94175.06;;;4.25;63.12
59289;BME280;45056;47.602;9.886;2023-02-03T01:09:27;94173.50;;;4.24;63.16
59289;BME280;45056;47.602;9.886;2023-02-03T01:11:55;94168.13;;;4.24;63.29
59289;BME280;45056;47.602;9.886;2023-02-03T01:14:24;94166.97;;;4.25;63.27
59289;BME280;45056;47.602;9.886;2023-02-03T01:16:52;94162.72;;;4.24;63.16
59289;BME280;45056;47.602;9.886;2023-02-03T01:19:20;94161.19;;;4.23;63.08
59289;BME280;45056;47.602;9.886;2023-02-03T01:21:48;94168.50;;;4.22;62.98
59289;BME280;45056;47.602;9.886;2023-02-03T01:24:17;94165.81;;;4.22;63.14
59289;BME280;45056;47.602;9.886;2023-02-03T01:26:45;94169.63;;;4.21;63.09
59289;BME280;45056;47.602;9.886;2023-02-03T01:29:13;94172.31;;;4.21;63.30
59289;BME280;45056;47.602;9.886;2023-02-03T01:31:42;94168.84;;;4.21;62.91
59289;BME280;45056;47.602;9.886;2023-02-03T01:34:12;94171.19;;;4.22;63.02
59289;BME280;45056;47.602;9.886;2023-02-03T01:36:41;94172.31;;;4.21;63.43
59289;BME280;45056;47.602;9.886;2023-02-03T01:39:10;94179.63;;;4.21;63.26
59289;BME280;45056;47.602;9.886;2023-02-03T01:41:39;94185.78;;;4.21;63.28
59289;BME280;45056;47.602;9.886;2023-02-03T01:47:23;94189.66;;;4.24;63.37
59289;BME280;45056;47.602;9.886;2023-02-03T01:50:06;94188.91;;;4.23;63.32
59289;BME280;45056;47.602;9.886;2023-02-03T01:52:42;94195.84;;;4.24;63.25
59289;BME280;45056;47.602;9.886;2023-02-03T01:55:17;94196.59;;;4.25;63.12
59289;BME280;45056;47.602;9.886;2023-02-03T01:57:52;94213.91;;;4.24;63.60
59289;BME280;45056;47.602;9.886;2023-02-03T02:00:24;94217.75;;;4.23;63.60
59289;BME280;45056;47.602;9.886;2023-02-03T02:02:59;94217.00;;;4.22;63.60
59289;BME280;45056;47.602;9.886;2023-02-03T02:05:34;94223.94;;;4.23;63.80
59289;BME280;45056;47.602;9.886;2023-02-03T02:08:08;94220.81;;;4.21;63.78
59289;BME280;45056;47.602;9.886;2023-02-03T02:10:38;94213.50;;;4.22;63.93
59289;BME280;45056;47.602;9.886;2023-02-03T02:13:06;94208.13;;;4.22;64.14
59289;BME280;45056;47.602;9.886;2023-02-03T02:15:45;94197.34;;;4.22;63.94
59289;BME280;45056;47.602;9.886;2023-02-03T02:18:40;94206.56;;;4.21;64.01
59289;BME280;45056;47.602;9.886;2023-02-03T02:21:43;94220.41;;;4.19;64.06
59289;BME280;45056;47.602;9.886;2023-02-03T02:28:01;94203.84;;;4.17;63.99
59289;BME280;45056;47.602;9.886;2023-02-03T02:34:37;94173.03;;;4.14;64.13
59289;BME280;45056;47.602;9.886;2023-02-03T02:37:23;94159.56;;;4.14;64.17
59289;BME280;45056;47.602;9.886;2023-02-03T02:40:13;94166.50;;;4.15;64.24
59289;BME280;45056;47.602;9.886;2023-02-03T02:42:58;94188.78;;;4.12;64.29
59289;BME280;45056;47.602;9.886;2023-02-03T02:45:42;94188.00;;;4.12;64.35
59289;BME280;45056;47.602;9.886;2023-02-03T02:48:21;94171.09;;;4.11;64.33
59289;BME280;45056;47.602;9.886;2023-02-03T02:50:57;94150.69;;;4.10;64.35
59289;BME280;45056;47.602;9.886;2023-02-03T02:53:35;94157.22;;;4.09;64.23
59289;BME280;45056;47.602;9.886;2023-02-03T02:56:09;94163.34;;;4.06;64.28
59289;BME280;45056;47.602;9.886;2023-02-03T02:58:45;94167.16;;;4.05;64.21
59289;BME280;45056;47.602;9.886;2023-02-03T03:01:16;94167.16;;;4.05;64.38
59289;BME280;45056;47.602;9.886;2023-02-03T03:03:47;94164.09;;;4.07;64.32
59289;BME280;45056;47.602;9.886;2023-02-03T03:06:20;94164.47;;;4.05;64.15
59289;BME280;45056;47.602;9.886;2023-02-03T03:08:55;94160.66;;;4.06;63.84
59289;BME280;45056;47.602;9.886;2023-02-03T03:11:37;94161.75;;;4.05;63.73
59289;BME280;45056;47.602;9.886;2023-02-03T03:14:11;94165.59;;;4.04;63.83
59289;BME280;45056;47.602;9.886;2023-02-03T03:16:52;94145.19;;;4.03;63.71
59289;BME280;45056;47.602;9.886;2023-02-03T03:19:30;94152.53;;;4.02;63.84
59289;BME280;45056;47.602;9.886;2023-02-03T03:22:05;94138.66;;;4.04;63.75
59289;BME280;45056;47.602;9.886;2023-02-03T03:24:41;94133.28;;;4.04;63.42
59289;BME280;45056;47.602;9.886;2023-02-03T03:27:17;94148.28;;;4.05;63.65
59289;BME280;45056;47.602;9.886;2023-02-03T03:29:53;94137.16;;;4.07;63.71
59289;BME280;45056;47.602;9.886;2023-02-03T03:32:27;94137.56;;;4.09;63.52
59289;BME280;45056;47.602;9.886;2023-02-03T03:35:02;94140.25;;;4.09;63.53
59289;BME280;45056;47.602;9.886;2023-02-03T03:37:35;94145.66;;;4.09;63.69
59289;BME280;45056;47.602;9.886;2023-02-03T03:40:11;94158.34;;;4.08;64.18
59289;BME280;45056;47.602;9.886;2023-02-03T03:42:50;94151.81;;;4.09;64.07
59289;BME280;45056;47.602;9.886;2023-02-03T03:45:30;94154.13;;;4.11;64.30
59289;BME280;45056;47.602;9.886;2023-02-03T03:48:08;94153.38;;;4.10;64.32
59289;BME280;45056;47.602;9.886;2023-02-03T03:50:46;94140.66;;;4.07;64.53
59289;BME280;45056;47.602;9.886;2023-02-03T03:53:21;94132.56;;;4.07;64.35
59289;BME280;45056;47.602;9.886;2023-02-03T03:55:53;94116.41;;;4.07;64.51
59289;BME280;45056;47.602;9.886;2023-02-03T03:58:27;94105.63;;;4.07;64.40
59289;BME280;45056;47.602;9.886;2023-02-03T04:01:01;94113.72;;;4.07;64.10
59289;BME280;45056;47.602;9.886;2023-02-03T04:03:38;94129.09;;;4.07;63.93
59289;BME280;45056;47.602;9.886;2023-02-03T04:06:11;94128.72;;;4.08;64.02
59289;BME280;45056;47.602;9.886;2023-02-03T04:08:39;94118.34;;;4.10;63.79
59289;BME280;45056;47.602;9.886;2023-02-03T04:11:08;94119.13;;;4.11;63.56
59289;BME280;45056;47.602;9.886;2023-02-03T04:13:36;94102.97;;;4.11;63.70
59289;BME280;45056;47.602;9.886;2023-02-03T04:16:04;94097.94;;;4.09;63.72
59289;BME280;45056;47.602;9.886;2023-02-03T04:18:32;94095.66;;;4.11;63.58
59289;BME280;45056;47.602;9.886;2023-02-03T04:21:00;94097.56;;;4.11;63.83
59289;BME280;45056;47.602;9.886;2023-02-03T04:23:29;94089.50;;;4.11;63.88
59289;BME280;45056;47.602;9.886;2023-02-03T04:25:59;94082.97;;;4.12;63.89
59289;BME280;45056;47.602;9.886;2023-02-03T04:28:27;94083.34;;;4.14;63.79
59289;BME280;45056;47.602;9.886;2023-02-03T04:30:59;94085.69;;;4.15;63.84
59289;BME280;45056;47.602;9.886;2023-02-03T04:33:27;94092.97;;;4.15;63.70
59289;BME280;45056;47.602;9.886;2023-02-03T04:35:55;94101.06;;;4.15;63.70
59289;BME280;45056;47.602;9.886;2023-02-03T04:38:23;94113.38;;;4.16;63.93
59289;BME280;45056;47.602;9.886;2023-02-03T04:40:52;94114.94;;;4.17;63.84
59289;BME280;45056;47.602;9.886;2023-02-03T04:43:20;94119.56;;;4.16;63.81
59289;BME280;45056;47.602;9.886;2023-02-03T04:45:48;94123.41;;;4.19;63.78
59289;BME280;45056;47.602;9.886;2023-02-03T04:48:16;94132.66;;;4.18;63.46
59289;BME280;45056;47.602;9.886;2023-02-03T04:50:44;94138.03;;;4.18;63.54
59289;BME280;45056;47.602;9.886;2023-02-03T04:53:12;94138.03;;;4.18;63.47
59289;BME280;45056;47.602;9.886;2023-02-03T04:55:40;94135.72;;;4.16;63.42
59289;BME280;45056;47.602;9.886;2023-02-03T04:58:09;94153.78;;;4.16;63.59
59289;BME280;45056;47.602;9.886;2023-02-03T05:00:37;94164.16;;;4.14;63.56
59289;BME280;45056;47.602;9.886;2023-02-03T05:03:05;94161.06;;;4.12;63.83
59289;BME280;45056;47.602;9.886;2023-02-03T05:05:33;94171.44;;;4.10;63.78
59289;BME280;45056;47.602;9.886;2023-02-03T05:08:01;94177.22;;;4.08;64.04
59289;BME280;45056;47.602;9.886;2023-02-03T05:10:30;94174.88;;;4.07;64.25
59289;BME280;45056;47.602;9.886;2023-02-03T05:12:58;94184.88;;;4.06;64.17
59289;BME280;45056;47.602;9.886;2023-02-03T05:15:27;94187.16;;;4.04;64.27
59289;BME280;45056;47.602;9.886;2023-02-03T05:17:55;94174.06;;;4.02;64.30
59289;BME280;45056;47.602;9.886;2023-02-03T05:20:23;94175.97;;;4.02;64.53
59289;BME280;45056;47.602;9.886;2023-02-03T05:22:51;94179.41;;;3.99;64.72
59289;BME280;45056;47.602;9.886;2023-02-03T05:25:20;94189.41;;;3.98;64.80
59289;BME280;45056;47.602;9.886;2023-02-03T05:27:48;94180.53;;;3.98;64.84
59289;BME280;45056;47.602;9.886;2023-02-03T05:30:17;94176.31;;;3.97;64.87
59289;BME280;45056;47.602;9.886;2023-02-03T05:32:47;94176.31;;;3.97;65.15
59289;BME280;45056;47.602;9.886;2023-02-03T05:35:15;94184.38;;;3.97;64.88
59289;BME280;45056;47.602;9.886;2023-02-03T05:37:44;94199.41;;;3.98;65.12
59289;BME280;45056;47.602;9.886;2023-02-03T05:40:12;94197.50;;;3.98;64.83
59289;BME280;45056;47.602;9.886;2023-02-03T05:42:58;94199.41;;;3.98;64.86
59289;BME280;45056;47.602;9.886;2023-02-03T05:45:26;94199.41;;;3.98;64.92
59289;BME280;45056;47.602;9.886;2023-02-03T05:47:55;94192.47;;;3.97;64.58
59289;BME280;45056;47.602;9.886;2023-02-03T05:50:23;94189.00;;;3.96;64.58
59289;BME280;45056;47.602;9.886;2023-02-03T05:52:52;94189.38;;;3.95;64.66
59289;BME280;45056;47.602;9.886;2023-02-03T05:55:20;94194.75;;;3.95;64.58
59289;BME280;45056;47.602;9.886;2023-02-03T05:57:48;94176.28;;;3.93;64.46
59289;BME280;45056;47.602;9.886;2023-02-03T06:00:16;94161.28;;;3.92;64.15
59289;BME280;45056;47.602;9.886;2023-02-03T06:02:50;94159.34;;;3.93;64.01
59289;BME280;45056;47.602;9.886;2023-02-03T06:05:21;94160.47;;;3.92;64.06
59289;BME280;45056;47.602;9.886;2023-02-03T06:07:49;94160.47;;;3.92;63.99
59289;BME280;45056;47.602;9.886;2023-02-03T06:10:18;94177.44;;;3.92;63.95
59289;BME280;45056;47.602;9.886;2023-02-03T06:12:47;94188.59;;;3.94;63.93
59289;BME280;45056;47.602;9.886;2023-02-03T06:15:16;94197.44;;;3.95;63.53
59289;BME280;45056;47.602;9.886;2023-02-03T06:17:46;94206.31;;;3.95;63.65
59289;BME280;45056;47.602;9.886;2023-02-03T06:20:19;94194.75;;;3.95;63.53
59289;BME280;45056;47.602;9.886;2023-02-03T06:22:47;94181.28;;;3.95;63.59
59289;BME280;45056;47.602;9.886;2023-02-03T06:25:16;94162.44;;;3.95;63.52
59289;BME280;45056;47.602;9.886;2023-02-03T06:27:44;94160.94;;;3.97;63.28
59289;BME280;45056;47.602;9.886;2023-02-03T06:30:12;94168.63;;;3.99;63.58
59289;BME280;45056;47.602;9.886;2023-02-03T06:32:41;94180.94;;;4.00;63.28
59289;BME280;45056;47.602;9.886;2023-02-03T06:35:10;94197.91;;;4.00;63.26
59289;BME280;45056;47.602;9.886;2023-02-03T06:37:40;94200.22;;;4.02;63.22
59289;BME280;45056;47.602;9.886;2023-02-03T06:40:09;94201.75;;;4.03;63.29
59289;BME280;45056;47.602;9.886;2023-02-03T06:42:38;94205.25;;;4.03;63.20
59289;BME280;45056;47.602;9.886;2023-02-03T06:45:07;94205.66;;;4.06;63.14
59289;BME280;45056;47.602;9.886;2023-02-03T06:47:38;94206.84;;;4.08;63.00
59289;BME280;45056;47.602;9.886;2023-02-03T06:50:08;94204.91;;;4.09;63.17
59289;BME280;45056;47.602;9.886;2023-02-03T06:52:37;94201.44;;;4.08;62.87
59289;BME280;45056;47.602;9.886;2023-02-03T06:55:07;94184.88;;;4.06;62.89
59289;BME280;45056;47.602;9.886;2023-02-03T06:57:42;94197.22;;;4.07;62.82
59289;BME280;45056;47.602;9.886;2023-02-03T07:00:11;94216.06;;;4.07;62.88
59289;BME280;45056;47.602;9.886;2023-02-03T07:02:41;94205.28;;;4.07;62.88
59289;BME280;45056;47.602;9.886;2023-02-03T07:05:09;94210.28;;;4.09;62.89
59289;BME280;45056;47.602;9.886;2023-02-03T07:07:37;94215.31;;;4.10;62.80
59289;BME280;45056;47.602;9.886;2023-02-03T07:10:08;94213.38;;;4.11;62.92
59289;BME280;45056;47.602;9.886;2023-02-03T07:12:36;94204.56;;;4.10;62.78
59289;BME280;45056;47.602;9.886;2023-02-03T07:15:04;94200.72;;;4.11;63.30
59289;BME280;45056;47.602;9.886;2023-02-03T07:17:33;94202.66;;;4.14;63.29
59289;BME280;45056;47.602;9.886;2023-02-03T07:20:01;94201.94;;;4.17;62.94
59289;BME280;45056;47.602;9.886;2023-02-03T07:22:30;94200.41;;;4.20;62.80
59289;BME280;45056;47.602;9.886;2023-02-03T07:24:57;94198.53;;;4.24;62.68
59289;BME280;45056;47.602;9.886;2023-02-03T07:27:27;94199.31;;;4.25;62.50
59289;BME280;45056;47.602;9.886;2023-02-03T07:29:55;94205.47;;;4.25;62.03
59289;BME280;45056;47.602;9.886;2023-02-03T07:32:23;94209.72;;;4.26;61.85
59289;BME280;45056;47.602;9.886;2023-02-03T07:34:51;94200.50;;;4.27;61.98
59289;BME280;45056;47.602;9.886;2023-02-03T07:37:19;94212.81;;;4.28;61.78
59289;BME280;45056;47.602;9.886;2023-02-03T07:39:48;94209.75;;;4.30;61.80
59289;BME280;45056;47.602;9.886;2023-02-03T07:42:16;94203.19;;;4.31;61.78
59289;BME280;45056;47.602;9.886;2023-02-03T07:44:46;94204.75;;;4.32;61.72
59289;BME280;45056;47.602;9.886;2023-02-03T07:47:14;94206.31;;;4.33;61.65
59289;BME280;45056;47.602;9.886;2023-02-03T07:49:42;94201.69;;;4.33;61.74
59289;BME280;45056;47.602;9.886;2023-02-03T07:52:10;94199.78;;;4.34;61.86
59289;BME280;45056;47.602;9.886;2023-02-03T07:54:38;94208.69;;;4.38;61.95
59289;BME280;45056;47.602;9.886;2023-02-03T07:57:06;94203.69;;;4.40;61.70
59289;BME280;45056;47.602;9.886;2023-02-03T07:59:35;94208.75;;;4.45;61.83
59289;BME280;45056;47.602;9.886;2023-02-03T08:02:04;94203.75;;;4.47;61.45
59289;BME280;45056;47.602;9.886;2023-02-03T08:04:34;94198.38;;;4.51;61.20
59289;BME280;45056;47.602;9.886;2023-02-03T08:07:02;94192.28;;;4.54;60.96
59289;BME280;45056;47.602;9.886;2023-02-03T08:09:31;94209.63;;;4.57;60.71
59289;BME280;45056;47.602;9.886;2023-02-03T08:11:59;94206.16;;;4.60;60.62
59289;BME280;45056;47.602;9.886;2023-02-03T08:14:27;94201.59;;;4.64;60.49
59289;BME280;45056;47.602;9.886;2023-02-03T08:16:56;94200.84;;;4.67;60.25
59289;BME280;45056;47.602;9.886;2023-02-03T08:19:26;94200.13;;;4.70;60.16
59289;BME280;45056;47.602;9.886;2023-02-03T08:21:54;94182.78;;;4.71;60.03
59289;BME280;45056;47.602;9.886;2023-02-03T08:24:22;94176.25;;;4.72;59.77
59289;BME280;45056;47.602;9.886;2023-02-03T08:26:50;94182.81;;;4.75;59.45
59289;BME280;45056;47.602;9.886;2023-02-03T08:29:19;94186.28;;;4.75;59.38
59289;BME280;45056;47.602;9.886;2023-02-03T08:31:48;94195.19;;;4.80;58.96
59289;BME280;45056;47.602;9.886;2023-02-03T08:34:16;94200.19;;;4.81;58.55
59289;BME280;45056;47.602;9.886;2023-02-03T08:36:45;94202.16;;;4.88;58.29
59289;BME280;45056;47.602;9.886;2023-02-03T08:39:14;94203.75;;;4.93;58.09
59289;BME280;45056;47.602;9.886;2023-02-03T08:41:42;94194.13;;;4.95;58.06
59289;BME280;45056;47.602;9.886;2023-02-03T08:44:11;94192.97;;;4.96;57.28
59289;BME280;45056;47.602;9.886;2023-02-03T08:46:39;94200.34;;;4.99;57.32
59289;BME280;45056;47.602;9.886;2023-02-03T08:49:09;94207.69;;;5.02;57.05
59289;BME280;45056;47.602;9.886;2023-02-03T08:51:38;94203.09;;;5.07;56.92
59289;BME280;45056;47.602;9.886;2023-02-03T08:54:08;94199.63;;;5.10;56.71
59289;BME280;45056;47.602;9.886;2023-02-03T08:56:36;94206.19;;;5.09;56.56
59289;BME280;45056;47.602;9.886;2023-02-03T08:59:04;94198.47;;;5.11;56.68
59289;BME280;45056;47.602;9.886;2023-02-03T09:01:32;94200.44;;;5.14;56.79
59289;BME280;45056;47.602;9.886;2023-02-03T09:04:00;94192.38;;;5.17;56.48
59289;BME280;45056;47.602;9.886;2023-02-03T09:06:29;94196.63;;;5.18;56.32
59289;BME280;45056;47.602;9.886;2023-02-03T09:08:57;94190.44;;;5.18;56.54
59289;BME280;45056;47.602;9.886;2023-02-03T09:11:26;94191.97;;;5.19;56.74
59289;BME280;45056;47.602;9.886;2023-02-03T09:13:54;94191.97;;;5.19;56.56
59289;BME280;45056;47.602;9.886;2023-02-03T09:16:24;94195.84;;;5.22;56.35
59289;BME280;45056;47.602;9.886;2023-02-03T09:18:52;94202.41;;;5.24;56.36
59289;BME280;45056;47.602;9.886;2023-02-03T09:21:20;94203.59;;;5.27;56.00
59289;BME280;45056;47.602;9.886;2023-02-03T09:23:51;94199.78;;;5.31;55.72
59289;BME280;45056;47.602;9.886;2023-02-03T09:26:19;94208.28;;;5.37;55.03
59289;BME280;45056;47.602;9.886;2023-02-03T09:28:48;94211.38;;;5.39;54.85
59289;BME280;45056;47.602;9.886;2023-02-03T09:31:16;94209.06;;;5.41;54.89
59289;BME280;45056;47.602;9.886;2023-02-03T09:33:45;94198.31;;;5.45;54.72
59289;BME280;45056;47.602;9.886;2023-02-03T09:36:13;94198.69;;;5.47;54.54
59289;BME280;45056;47.602;9.886;2023-02-03T09:38:41;94189.84;;;5.50;54.71
59289;BME280;45056;47.602;9.886;2023-02-03T09:41:21;94189.47;;;5.55;54.55
59289;BME280;45056;47.602;9.886;2023-02-03T09:44:11;94193.75;;;5.60;54.24
59289;BME280;45056;47.602;9.886;2023-02-03T09:46:49;94198.41;;;5.63;54.04
59289;BME280;45056;47.602;9.886;2023-02-03T09:49:27;94202.63;;;5.64;54.03
59289;BME280;45056;47.602;9.886;2023-02-03T09:52:11;94219.25;;;5.62;53.92
59289;BME280;45056;47.602;9.886;2023-02-03T09:54:49;94233.88;;;5.61;54.05
59289;BME280;45056;47.602;9.886;2023-02-03T09:57:25;94221.50;;;5.60;53.92
59289;BME280;45056;47.602;9.886;2023-02-03T09:59:58;94220.38;;;5.65;54.01
59289;BME280;45056;47.602;9.886;2023-02-03T10:02:44;94223.19;;;5.83;53.83
59289;BME280;45056;47.602;9.886;2023-02-03T10:05:27;94231.38;;;6.01;53.26
59289;BME280;45056;47.602;9.886;2023-02-03T10:08:24;94222.56;;;6.23;52.95
59289;BME280;45056;47.602;9.886;2023-02-03T10:11:16;94228.06;;;6.41;52.33
59289;BME280;45056;47.602;9.886;2023-02-03T10:14:05;94219.94;;;6.52;52.01
59289;BME280;45056;47.602;9.886;2023-02-03T10:16:59;94210.31;;;6.69;52.08
59289;BME280;45056;47.602;9.886;2023-02-03T10:19:44;94208.38;;;6.84;51.56
59289;BME280;45056;47.602;9.886;2023-02-03T10:22:22;94204.94;;;6.94;51.12
59289;BME280;45056;47.602;9.886;2023-02-03T10:24:59;94204.16;;;6.97;50.65
59289;BME280;45056;47.602;9.886;2023-02-03T10:27:33;94203.38;;;7.00;50.70
59289;BME280;45056;47.602;9.886;2023-02-03T10:30:10;94200.28;;;7.05;51.13
59289;BME280;45056;47.602;9.886;2023-02-03T10:32:48;94188.66;;;7.16;50.64
59289;BME280;45056;47.602;9.886;2023-02-03T10:35:27;94186.34;;;7.25;50.42
59289;BME280;45056;47.602;9.886;2023-02-03T10:38:14;94183.22;;;7.27;50.09
59289;BME280;45056;47.602;9.886;2023-02-03T10:40:51;94189.03;;;7.32;50.63
59289;BME280;45056;47.602;9.886;2023-02-03T10:43:19;94187.06;;;7.44;50.46
59289;BME280;45056;47.602;9.886;2023-02-03T10:46:04;94172.72;;;7.58;50.26
59289;BME280;45056;47.602;9.886;2023-02-03T10:48:34;94172.31;;;7.67;49.75
59289;BME280;45056;47.602;9.886;2023-02-03T10:51:02;94149.47;;;7.71;49.51
59289;BME280;45056;47.602;9.886;2023-02-03T10:53:33;94137.06;;;7.81;49.65
59289;BME280;45056;47.602;9.886;2023-02-03T10:56:06;94152.09;;;7.89;48.97
59289;BME280;45056;47.602;9.886;2023-02-03T10:58:38;94143.56;;;7.91;48.83
59289;BME280;45056;47.602;9.886;2023-02-03T11:01:16;94133.50;;;7.88;48.84
59289;BME280;45056;47.602;9.886;2023-02-03T11:03:56;94143.59;;;7.84;48.76
59289;BME280;45056;47.602;9.886;2023-02-03T11:06:27;94134.34;;;7.77;49.16
59289;BME280;45056;47.602;9.886;2023-02-03T11:08:56;94142.88;;;7.69;49.78
59289;BME280;45056;47.602;9.886;2023-02-03T11:11:26;94125.50;;;7.62;49.74
59289;BME280;45056;47.602;9.886;2023-02-03T11:14:11;94136.75;;;7.54;49.52
59289;BME280;45056;47.602;9.886;2023-02-03T11:16:43;94148.00;;;7.45;49.59
59289;BME280;45056;47.602;9.886;2023-02-03T11:19:17;94143.00;;;7.36;49.80
59289;BME280;45056;47.602;9.886;2023-02-03T11:21:51;94146.88;;;7.28;49.85
59289;BME280;45056;47.602;9.886;2023-02-03T11:24:24;94154.25;;;7.16;50.23
59289;BME280;45056;47.602;9.886;2023-02-03T11:26:57;94151.94;;;7.07;50.58
59289;BME280;45056;47.602;9.886;2023-02-03T11:29:32;94154.66;;;7.04;50.82
59289;BME280;45056;47.602;9.886;2023-02-03T11:32:12;94159.69;;;7.05;51.02
59289;BME280;45056;47.602;9.886;2023-02-03T11:34:55;94149.25;;;7.04;50.98
59289;BME280;45056;47.602;9.886;2023-02-03T11:37:27;94158.91;;;7.01;51.27
59289;BME280;45056;47.602;9.886;2023-02-03T11:40:23;94166.25;;;6.97;51.43
59289;BME280;45056;47.602;9.886;2023-02-03T11:43:01;94173.22;;;6.95;51.17
59289;BME280;45056;47.602;9.886;2023-02-03T11:45:37;94166.28;;;6.90;51.51
59289;BME280;45056;47.602;9.886;2023-02-03T11:48:23;94161.66;;;6.87;51.96
59289;BME280;45056;47.602;9.886;2023-02-03T11:51:03;94163.94;;;6.81;51.98
59289;BME280;45056;47.602;9.886;2023-02-03T11:53:58;94153.91;;;6.74;52.31
59289;BME280;45056;47.602;9.886;2023-02-03T11:56:58;94156.22;;;6.69;52.52
59289;BME280;45056;47.602;9.886;2023-02-03T11:59:55;94150.03;;;6.64;52.64
59289;BME280;45056;47.602;9.886;2023-02-03T12:03:03;94138.06;;;6.62;52.67
59289;BME280;45056;47.602;9.886;2023-02-03T12:06:09;94137.28;;;6.61;52.87
59289;BME280;45056;47.602;9.886;2023-02-03T12:09:00;94114.88;;;6.61;52.76
59289;BME280;45056;47.602;9.886;2023-02-03T12:11:53;94115.25;;;6.59;52.72
59289;BME280;45056;47.602;9.886;2023-02-03T12:14:48;94113.72;;;6.55;53.03
59289;BME280;45056;47.602;9.886;2023-02-03T12:17:44;94118.34;;;6.50;52.65
59289;BME280;45056;47.602;9.886;2023-02-03T12:20:39;94128.00;;;6.44;52.92
59289;BME280;45056;47.602;9.886;2023-02-03T12:23:33;94116.03;;;6.38;53.05
59289;BME280;45056;47.602;9.886;2023-02-03T12:26:18;94089.78;;;6.35;53.07
59289;BME280;45056;47.602;9.886;2023-02-03T12:28:58;94085.53;;;6.34;53.44
59289;BME280;45056;47.602;9.886;2023-02-03T12:31:36;94081.28;;;6.33;53.56
59289;BME280;45056;47.602;9.886;2023-02-03T12:34:16;94078.19;;;6.31;53.55
59289;BME280;45056;47.602;9.886;2023-02-03T12:36:54;94072.78;;;6.27;53.67
59289;BME280;45056;47.602;9.886;2023-02-03T12:39:35;94075.88;;;6.26;53.71
59289;BME280;45056;47.602;9.886;2023-02-03T12:42:14;94092.84;;;6.23;53.92
59289;BME280;45056;47.602;9.886;2023-02-03T12:44:51;94089.00;;;6.20;54.02
59289;BME280;45056;47.602;9.886;2023-02-03T12:47:31;94070.44;;;6.18;54.14
59289;BME280;45056;47.602;9.886;2023-02-03T12:50:15;94075.84;;;6.18;54.17
59289;BME280;45056;47.602;9.886;2023-02-03T12:52:53;94070.84;;;6.17;54.13
59289;BME280;45056;47.602;9.886;2023-02-03T12:55:34;94077.81;;;6.18;54.31
59289;BME280;45056;47.602;9.886;2023-02-03T12:58:10;94064.66;;;6.20;54.31
59289;BME280;45056;47.602;9.886;2023-02-03T13:00:48;94056.53;;;6.24;54.16
59289;BME280;45056;47.602;9.886;2023-02-03T13:03:29;94049.22;;;6.20;54.20
59289;BME280;45056;47.602;9.886;2023-02-03T13:06:07;94046.91;;;6.19;54.33
59289;BME280;45056;47.602;9.886;2023-02-03T13:08:45;94058.09;;;6.17;54.25
59289;BME280;45056;47.602;9.886;2023-02-03T13:11:30;94048.06;;;6.18;54.38
59289;BME280;45056;47.602;9.886;2023-02-03T13:14:10;94048.06;;;6.18;54.31
59289;BME280;45056;47.602;9.886;2023-02-03T13:16:51;94029.91;;;6.18;54.19
59289;BME280;45056;47.602;9.886;2023-02-03T13:19:26;94033.41;;;6.19;54.30
59289;BME280;45056;47.602;9.886;2023-02-03T13:22:01;94023.34;;;6.19;54.28
59289;BME280;45056;47.602;9.886;2023-02-03T13:24:29;94029.91;;;6.22;54.36
59289;BME280;45056;47.602;9.886;2023-02-03T13:27:13;94025.69;;;6.25;54.15
59289;BME280;45056;47.602;9.886;2023-02-03T13:30:15;94029.94;;;6.26;54.16
59289;BME280;45056;47.602;9.886;2023-02-03T13:36:49;94017.56;;;6.32;54.25
59289;BME280;45056;47.602;9.886;2023-02-03T13:39:49;94026.06;;;6.34;54.08
59289;BME280;45056;47.602;9.886;2023-02-03T13:42:26;94032.59;;;6.37;54.15
59289;BME280;45056;47.602;9.886;2023-02-03T13:45:02;94041.09;;;6.39;54.09
59289;BME280;45056;47.602;9.886;2023-02-03T13:47:36;94041.88;;;6.39;54.17
59289;BME280;45056;47.602;9.886;2023-02-03T13:50:16;94038.81;;;6.41;54.06
59289;BME280;45056;47.602;9.886;2023-02-03T13:52:56;94018.34;;;6.40;54.11
59289;BME280;45056;47.602;9.886;2023-02-03T13:55:33;94026.06;;;6.41;54.04
59289;BME280;45056;47.602;9.886;2023-02-03T13:58:19;94021.81;;;6.40;54.06